Time;durP1;ratioP1;P1;durP2;ratioP2;P2;SDS_P1;SDS_P2;PMS_P1;PMS_P2;Temp;Humidity;BMP_temperature;BMP_pressure;BME280_temperature;BME280_humidity;BME280_pressure;Samples;Min_cycle;Max_cycle;Signal;HPM_P1;HPM_P2
2024/01/07 00:00:04;;;;;;;1.40;1.40;;;16.70;73.20;;;;;;5049628;28;43619;-72
2024/01/07 00:02:32;;;;;;;1.30;1.30;;;16.70;73.30;;;;;;5046063;28;43459;-71
2024/01/07 00:05:01;;;;;;;1.50;1.50;;;16.80;73.30;;;;;;5049085;28;43478;-72
2024/01/07 00:07:31;;;;;;;1.30;1.30;;;16.70;73.20;;;;;;5048149;28;43687;-72
2024/01/07 00:09:59;;;;;;;1.47;1.47;;;16.80;73.20;;;;;;5048855;28;43612;-72
2024/01/07 00:12:29;;;;;;;1.40;1.40;;;16.70;73.20;;;;;;5049431;28;43484;-73
2024/01/07 00:14:57;;;;;;;1.30;1.30;;;16.70;73.20;;;;;;5063043;28;43536;-71
2024/01/07 00:17:25;;;;;;;1.50;1.50;;;16.70;73.40;;;;;;5043592;28;43504;-70
2024/01/07 00:19:57;;;;;;;1.40;1.40;;;16.70;73.30;;;;;;5047051;28;43878;-71
2024/01/07 00:22:25;;;;;;;1.50;1.50;;;16.90;73.70;;;;;;5059853;28;44752;-72
2024/01/07 00:24:56;;;;;;;1.30;1.30;;;17.00;72.60;;;;;;5048907;28;43387;-72
2024/01/07 00:27:24;;;;;;;1.37;1.37;;;17.00;72.40;;;;;;5047618;28;43628;-71
2024/01/07 00:29:52;;;;;;;1.40;1.40;;;16.90;72.40;;;;;;5048099;28;44069;-73
2024/01/07 00:32:20;;;;;;;1.30;1.30;;;16.90;72.50;;;;;;5046660;28;45149;-71
2024/01/07 00:34:49;;;;;;;1.30;1.30;;;16.90;72.80;;;;;;5047895;28;43486;-71
2024/01/07 00:37:22;;;;;;;1.40;1.40;;;16.90;73.30;;;;;;5068639;28;43601;-72
2024/01/07 00:39:51;;;;;;;1.27;1.27;;;16.90;72.70;;;;;;5048408;28;44027;-72
2024/01/07 00:42:21;;;;;;;1.30;1.30;;;16.90;72.80;;;;;;5048450;28;43475;-72
2024/01/07 00:44:50;;;;;;;1.30;1.30;;;16.80;73.60;;;;;;5048045;28;43513;-71
2024/01/07 00:47:18;;;;;;;1.60;1.60;;;16.80;73.00;;;;;;5049026;28;43384;-71
2024/01/07 00:49:46;;;;;;;1.37;1.37;;;16.80;73.10;;;;;;5048030;28;43908;-72
2024/01/07 00:52:14;;;;;;;1.40;1.40;;;16.80;73.20;;;;;;5048040;28;44063;-73
2024/01/07 00:54:42;;;;;;;1.40;1.40;;;16.80;72.80;;;;;;5047764;28;43431;-71
2024/01/07 00:57:11;;;;;;;1.20;1.20;;;16.90;72.80;;;;;;5047013;28;43595;-71
2024/01/07 00:59:41;;;;;;;1.20;1.20;;;16.80;72.70;;;;;;5045471;28;45971;-73
2024/01/07 01:02:09;;;;;;;1.30;1.30;;;16.80;72.80;;;;;;5065283;28;44294;-72
2024/01/07 01:04:39;;;;;;;1.37;1.37;;;16.80;73.00;;;;;;5042275;28;43416;-71
2024/01/07 01:07:08;;;;;;;1.40;1.40;;;16.80;73.00;;;;;;5045876;28;43484;-71
2024/01/07 01:09:36;;;;;;;1.30;1.30;;;16.80;73.00;;;;;;5046228;28;45847;-73
2024/01/07 01:12:05;;;;;;;1.30;1.30;;;16.80;73.00;;;;;;5045778;28;44761;-71
2024/01/07 01:14:33;;;;;;;1.40;1.40;;;16.80;73.00;;;;;;5046444;28;44471;-72
2024/01/07 01:17:03;;;;;;;1.30;1.30;;;16.80;73.00;;;;;;5046597;28;43523;-72
2024/01/07 01:19:31;;;;;;;1.20;1.20;;;16.70;73.10;;;;;;5045615;28;45364;-71
2024/01/07 01:22:00;;;;;;;1.13;1.13;;;16.70;73.20;;;;;;5045697;28;43440;-72
2024/01/07 01:24:28;;;;;;;1.20;1.20;;;16.70;73.20;;;;;;5047816;28;43443;-73
2024/01/07 01:26:56;;;;;;;1.23;1.23;;;16.80;73.00;;;;;;5045991;28;43475;-71
2024/01/07 01:29:24;;;;;;;1.40;1.40;;;16.90;72.60;;;;;;5045520;28;46266;-72
2024/01/07 01:31:52;;;;;;;1.30;1.30;;;16.90;72.30;;;;;;5046000;28;43751;-72
2024/01/07 01:34:22;;;;;;;1.40;1.40;;;16.90;72.30;;;;;;5046160;28;43450;-72
2024/01/07 01:36:52;;;;;;;1.40;1.40;;;16.90;72.50;;;;;;5046704;28;43502;-74
2024/01/07 01:39:20;;;;;;;1.30;1.30;;;16.90;72.70;;;;;;5045716;28;44008;-72
2024/01/07 01:41:48;;;;;;;1.30;1.30;;;16.90;72.60;;;;;;5042646;28;44780;-74
2024/01/07 01:44:16;;;;;;;1.13;1.13;;;16.90;72.60;;;;;;5038857;28;43467;-74
2024/01/07 01:46:45;;;;;;;1.10;1.10;;;16.80;72.60;;;;;;5046851;28;44026;-73
2024/01/07 01:49:14;;;;;;;1.20;1.20;;;16.80;72.70;;;;;;5045498;28;45858;-73
2024/01/07 01:51:43;;;;;;;1.07;1.07;;;16.80;72.80;;;;;;5046172;28;44536;-74
2024/01/07 01:54:12;;;;;;;1.10;1.10;;;16.80;73.00;;;;;;5045690;28;43447;-73
2024/01/07 01:56:40;;;;;;;1.10;1.10;;;16.80;73.00;;;;;;5043672;28;43431;-75
2024/01/07 01:59:08;;;;;;;1.10;1.10;;;16.70;72.90;;;;;;5044482;28;46071;-74
2024/01/07 02:01:36;;;;;;;1.07;1.07;;;16.80;73.00;;;;;;5047220;28;43535;-74
2024/01/07 02:04:04;;;;;;;1.20;1.20;;;16.80;73.10;;;;;;5045353;28;43515;-74
2024/01/07 02:06:32;;;;;;;1.10;1.10;;;16.70;73.10;;;;;;5046076;28;43599;-73
2024/01/07 02:09:03;;;;;;;1.40;1.40;;;16.70;73.10;;;;;;5046636;28;43979;-73
2024/01/07 02:11:31;;;;;;;1.20;1.20;;;16.70;73.20;;;;;;5045220;28;44835;-73
2024/01/07 02:13:59;;;;;;;1.10;1.10;;;16.70;73.20;;;;;;5045900;28;43515;-74
2024/01/07 02:16:27;;;;;;;1.10;1.10;;;16.70;73.10;;;;;;5046377;28;43473;-71
2024/01/07 02:18:55;;;;;;;1.10;1.10;;;16.70;73.10;;;;;;5045675;28;44729;-72
2024/01/07 02:21:24;;;;;;;1.10;1.10;;;16.70;73.20;;;;;;5045096;28;45076;-71
2024/01/07 02:23:52;;;;;;;1.30;1.30;;;16.70;73.20;;;;;;5046008;28;43444;-71
2024/01/07 02:26:21;;;;;;;1.23;1.23;;;16.70;73.30;;;;;;5047996;28;43490;-71
2024/01/07 02:28:52;;;;;;;1.10;1.10;;;16.70;74.00;;;;;;5045559;28;46056;-71
2024/01/07 02:31:20;;;;;;;1.10;1.10;;;16.80;73.10;;;;;;5046517;28;44405;-70
2024/01/07 02:33:48;;;;;;;1.30;1.30;;;16.90;72.70;;;;;;5050990;28;43892;-70
2024/01/07 02:36:17;;;;;;;1.33;1.33;;;17.00;73.00;;;;;;5050972;28;43445;-73
2024/01/07 02:38:45;;;;;;;1.00;1.00;;;17.00;72.20;;;;;;5048893;28;45718;-71
2024/01/07 02:41:13;;;;;;;1.13;1.13;;;16.90;72.30;;;;;;5048231;28;44918;-70
2024/01/07 02:43:43;;;;;;;1.20;1.20;;;16.90;72.60;;;;;;5049833;28;44056;-70
2024/01/07 02:46:11;;;;;;;1.13;1.13;;;16.90;72.50;;;;;;5045901;28;43491;-72
2024/01/07 02:48:40;;;;;;;1.20;1.20;;;16.90;72.50;;;;;;5043745;28;44001;-73
2024/01/07 02:51:09;;;;;;;1.00;1.00;;;16.80;72.50;;;;;;5043432;28;45727;-72
2024/01/07 02:53:37;;;;;;;1.07;1.07;;;16.80;72.70;;;;;;5046781;28;43398;-72
2024/01/07 02:56:08;;;;;;;1.10;1.10;;;16.80;72.80;;;;;;5048478;28;43554;-73
2024/01/07 02:58:36;;;;;;;1.13;1.13;;;16.70;72.90;;;;;;5049944;28;43850;-72
2024/01/07 03:01:08;;;;;;;1.13;1.13;;;16.70;72.90;;;;;;5049454;28;43528;-73
2024/01/07 03:03:37;;;;;;;1.20;1.20;;;16.70;72.90;;;;;;5049403;28;43419;-73
2024/01/07 03:06:05;;;;;;;1.20;1.20;;;16.70;72.90;;;;;;5049212;28;44205;-73
2024/01/07 03:08:33;;;;;;;1.20;1.20;;;16.70;73.00;;;;;;5047700;28;45303;-73
2024/01/07 03:11:06;;;;;;;1.10;1.10;;;16.70;73.00;;;;;;5047268;28;45109;-71
2024/01/07 03:13:34;;;;;;;1.10;1.10;;;16.70;73.20;;;;;;5048581;28;43446;-72
2024/01/07 03:16:02;;;;;;;1.10;1.10;;;16.70;73.20;;;;;;5048554;28;43462;-73
2024/01/07 03:18:31;;;;;;;1.20;1.20;;;16.80;73.80;;;;;;5048217;28;43611;-71
2024/01/07 03:21:00;;;;;;;1.20;1.20;;;16.80;73.30;;;;;;5046816;28;44711;-71
2024/01/07 03:23:27;;;;;;;1.10;1.10;;;16.80;72.50;;;;;;5048710;28;43411;-72
2024/01/07 03:25:55;;;;;;;1.00;1.00;;;16.80;72.50;;;;;;5057923;28;43654;-71
2024/01/07 03:28:23;;;;;;;1.17;1.17;;;16.80;72.60;;;;;;5048599;28;43783;-71
2024/01/07 03:30:51;;;;;;;1.10;1.10;;;16.80;72.90;;;;;;5047332;28;44756;-71
2024/01/07 03:33:19;;;;;;;1.10;1.10;;;16.80;72.70;;;;;;5048535;28;43422;-70
2024/01/07 03:35:48;;;;;;;1.20;1.20;;;16.80;72.80;;;;;;5047241;28;43599;-71
2024/01/07 03:38:17;;;;;;;1.10;1.10;;;16.70;73.50;;;;;;5048305;28;43936;-71
2024/01/07 03:40:45;;;;;;;1.10;1.10;;;16.70;72.90;;;;;;5047277;28;44767;-72
2024/01/07 03:43:13;;;;;;;1.30;1.30;;;16.70;72.90;;;;;;5049875;28;43443;-71
2024/01/07 03:45:49;;;;;;;1.27;1.27;;;16.70;73.00;;;;;;5048555;28;43651;-72
2024/01/07 03:48:17;;;;;;;1.13;1.13;;;16.70;73.20;;;;;;5046616;28;45383;-72
2024/01/07 03:50:45;;;;;;;1.23;1.23;;;16.80;73.00;;;;;;5048498;28;43379;-71
2024/01/07 03:53:15;;;;;;;1.30;1.30;;;16.90;72.60;;;;;;5048732;28;43859;-71
2024/01/07 03:55:43;;;;;;;1.27;1.27;;;16.80;72.40;;;;;;5046515;28;43363;-70
2024/01/07 03:58:11;;;;;;;1.23;1.23;;;16.80;72.40;;;;;;5047711;28;43929;-72
2024/01/07 04:00:39;;;;;;;1.30;1.30;;;16.80;72.50;;;;;;5047442;28;43521;-72
2024/01/07 04:03:10;;;;;;;1.30;1.30;;;16.80;72.70;;;;;;5045960;28;43406;-71
2024/01/07 04:05:38;;;;;;;1.23;1.23;;;16.80;72.60;;;;;;5009233;28;1100228;-71
2024/01/07 04:08:07;;;;;;;1.20;1.20;;;16.70;72.60;;;;;;5047280;28;46023;-71
2024/01/07 04:10:36;;;;;;;1.30;1.30;;;16.70;72.70;;;;;;5047577;28;44318;-72
2024/01/07 04:13:05;;;;;;;1.20;1.20;;;16.70;72.80;;;;;;5048182;28;44003;-71
2024/01/07 04:15:33;;;;;;;1.17;1.17;;;16.70;72.90;;;;;;5051186;28;43382;-73
2024/01/07 04:18:03;;;;;;;1.50;1.50;;;16.70;73.00;;;;;;5047379;28;44095;-71
2024/01/07 04:20:31;;;;;;;1.40;1.40;;;16.70;72.90;;;;;;5062406;28;44022;-71
2024/01/07 04:22:59;;;;;;;1.40;1.40;;;16.70;73.00;;;;;;5048496;28;43481;-70
2024/01/07 04:25:27;;;;;;;1.37;1.37;;;16.70;73.10;;;;;;5044903;28;43449;-71
2024/01/07 04:27:56;;;;;;;1.30;1.30;;;16.60;73.00;;;;;;5048361;28;43580;-72
2024/01/07 04:30:25;;;;;;;1.57;1.57;;;16.60;73.10;;;;;;5046707;28;44815;-71
2024/01/07 04:32:53;;;;;;;1.40;1.40;;;16.60;73.20;;;;;;5048808;28;43454;-72
2024/01/07 04:35:21;;;;;;;1.50;1.50;;;16.60;73.20;;;;;;5047337;28;43944;-71
2024/01/07 04:37:49;;;;;;;1.30;1.30;;;16.70;73.10;;;;;;5048609;28;43840;-74
2024/01/07 04:40:17;;;;;;;1.50;1.50;;;16.80;72.70;;;;;;5048800;28;43315;-73
2024/01/07 04:42:45;;;;;;;1.57;1.57;;;16.80;72.40;;;;;;5048092;28;43476;-73
2024/01/07 04:45:15;;;;;;;1.50;1.50;;;16.80;72.30;;;;;;5049758;28;43458;-74
2024/01/07 04:47:43;;;;;;;1.47;1.47;;;16.80;73.10;;;;;;5048465;28;43603;-75
2024/01/07 04:50:11;;;;;;;1.40;1.40;;;16.80;72.60;;;;;;5048304;28;43580;-72
2024/01/07 04:52:39;;;;;;;1.83;1.83;;;16.80;72.60;;;;;;5048698;28;43872;-74
2024/01/07 04:55:09;;;;;;;1.60;1.60;;;16.80;72.50;;;;;;5047713;28;43530;-74
2024/01/07 04:57:37;;;;;;;1.43;1.43;;;16.70;72.50;;;;;;5047235;28;45622;-72
2024/01/07 05:00:07;;;;;;;1.27;1.27;;;16.70;72.60;;;;;;5048535;28;43451;-74
2024/01/07 05:02:37;;;;;;;1.70;1.70;;;16.70;72.80;;;;;;5048985;28;43470;-75
2024/01/07 05:05:06;;;;;;;1.50;1.50;;;16.70;72.90;;;;;;5044664;28;43364;-75
2024/01/07 05:07:34;;;;;;;1.60;1.60;;;16.70;73.00;;;;;;5027537;28;45652;-71
2024/01/07 05:10:03;;;;;;;1.60;1.60;;;16.80;73.00;;;;;;5023327;28;44292;-74
2024/01/07 05:12:31;;;;;;;1.60;1.60;;;16.90;72.50;;;;;;5029374;28;43484;-71
2024/01/07 05:14:59;;;;;;;1.53;1.53;;;16.90;72.20;;;;;;5027733;28;43480;-72
2024/01/07 05:17:27;;;;;;;1.43;1.43;;;16.90;72.20;;;;;;5036318;28;43862;-72
2024/01/07 05:19:57;;;;;;;1.53;1.53;;;16.90;72.30;;;;;;5029966;28;43550;-71
2024/01/07 05:22:25;;;;;;;1.70;1.70;;;16.80;72.40;;;;;;5033510;28;43368;-72
2024/01/07 05:24:53;;;;;;;1.50;1.50;;;16.80;72.40;;;;;;5027292;28;43387;-71
2024/01/07 05:27:21;;;;;;;1.70;1.70;;;16.80;72.40;;;;;;5029633;28;43857;-71
2024/01/07 05:29:49;;;;;;;1.47;1.47;;;16.80;72.40;;;;;;5030282;28;43451;-70
2024/01/07 05:32:17;;;;;;;1.50;1.50;;;16.80;72.50;;;;;;5031776;28;43502;-72
2024/01/07 05:34:45;;;;;;;1.60;1.60;;;16.80;72.60;;;;;;5032737;28;43638;-71
2024/01/07 05:37:15;;;;;;;1.63;1.63;;;16.80;72.70;;;;;;5026619;28;45872;-72
2024/01/07 05:39:43;;;;;;;1.63;1.63;;;16.70;72.70;;;;;;5031727;28;44743;-72
2024/01/07 05:42:11;;;;;;;1.70;1.70;;;16.70;72.60;;;;;;5034151;28;43364;-70
2024/01/07 05:44:40;;;;;;;1.70;1.70;;;16.70;72.70;;;;;;5034640;28;43520;-72
2024/01/07 05:47:08;;;;;;;1.53;1.53;;;16.70;72.70;;;;;;5030932;28;43854;-72
2024/01/07 05:49:36;;;;;;;1.63;1.63;;;16.70;72.80;;;;;;5028163;28;44415;-72
2024/01/07 05:52:05;;;;;;;1.70;1.70;;;16.70;72.80;;;;;;5023130;28;43432;-73
2024/01/07 05:54:34;;;;;;;1.63;1.63;;;16.70;73.00;;;;;;5031188;28;43357;-72
2024/01/07 05:57:03;;;;;;;1.87;1.83;;;16.80;73.00;;;;;;5033630;28;43603;-73
2024/01/07 05:59:31;;;;;;;1.70;1.70;;;16.80;72.60;;;;;;5034781;28;44304;-73
2024/01/07 06:01:59;;;;;;;1.80;1.80;;;16.80;72.20;;;;;;5033469;28;43438;-72
2024/01/07 06:04:27;;;;;;;1.80;1.80;;;16.80;72.20;;;;;;5030497;28;43454;-72
2024/01/07 06:06:56;;;;;;;1.80;1.80;;;16.80;72.30;;;;;;5041563;28;43592;-72
2024/01/07 06:09:24;;;;;;;2.00;2.00;;;16.80;72.40;;;;;;5046920;28;43972;-74
2024/01/07 06:11:54;;;;;;;1.80;1.80;;;16.80;72.50;;;;;;5046613;28;43879;-73
2024/01/07 06:14:23;;;;;;;1.90;1.90;;;16.80;72.60;;;;;;5050156;28;43549;-72
2024/01/07 06:16:52;;;;;;;1.70;1.70;;;16.80;72.60;;;;;;5046937;28;43972;-72
2024/01/07 06:19:20;;;;;;;1.93;1.93;;;16.70;72.50;;;;;;5046833;28;43567;-72
2024/01/07 06:21:48;;;;;;;1.50;1.50;;;16.70;72.70;;;;;;5044742;28;43431;-73
2024/01/07 06:24:16;;;;;;;1.70;1.70;;;16.70;72.70;;;;;;5045701;28;43424;-71
2024/01/07 06:26:44;;;;;;;1.90;1.90;;;16.70;73.00;;;;;;5042741;28;43913;-71
2024/01/07 06:29:14;;;;;;;1.70;1.70;;;16.70;73.00;;;;;;5046532;28;43462;-70
2024/01/07 06:31:45;;;;;;;1.60;1.60;;;16.80;72.70;;;;;;5047092;28;43401;-72
2024/01/07 06:34:13;;;;;;;1.67;1.67;;;16.80;72.40;;;;;;5047208;28;43926;-72
2024/01/07 06:36:42;;;;;;;1.60;1.60;;;16.80;72.40;;;;;;5046440;28;43603;-70
2024/01/07 06:39:13;;;;;;;1.70;1.70;;;16.80;72.50;;;;;;5046217;28;43495;-72
2024/01/07 06:41:41;;;;;;;1.87;1.87;;;16.80;72.70;;;;;;5045363;28;43460;-71
2024/01/07 06:44:09;;;;;;;1.80;1.80;;;16.80;72.70;;;;;;5048579;28;43396;-72
2024/01/07 06:46:40;;;;;;;1.70;1.70;;;16.80;72.80;;;;;;5042051;28;45642;-71
2024/01/07 06:49:08;;;;;;;1.80;1.80;;;16.70;72.70;;;;;;5046870;28;43415;-71
2024/01/07 06:51:38;;;;;;;1.80;1.80;;;16.70;72.80;;;;;;5044503;28;43671;-70
2024/01/07 06:54:06;;;;;;;1.73;1.73;;;16.70;72.90;;;;;;5045400;28;43416;-73
2024/01/07 06:56:42;;;;;;;1.73;1.73;;;16.70;73.00;;;;;;5046791;28;43593;-72
2024/01/07 06:59:10;;;;;;;1.93;1.93;;;16.60;73.10;;;;;;5046472;28;43456;-72
2024/01/07 07:01:40;;;;;;;1.60;1.60;;;16.60;73.10;;;;;;5043759;28;43862;-72
2024/01/07 07:04:08;;;;;;;1.90;1.90;;;16.60;73.10;;;;;;5046108;28;43501;-73
2024/01/07 07:06:36;;;;;;;1.83;1.83;;;16.60;73.10;;;;;;5044391;28;45748;-72
2024/01/07 07:09:04;;;;;;;1.60;1.60;;;16.60;73.20;;;;;;5046353;28;43526;-73
2024/01/07 07:11:33;;;;;;;2.00;2.00;;;16.60;73.20;;;;;;5046485;28;43399;-72
2024/01/07 07:14:03;;;;;;;1.93;1.93;;;16.60;73.40;;;;;;5051688;28;43573;-71
2024/01/07 07:16:31;;;;;;;1.80;1.80;;;16.60;73.50;;;;;;5044732;28;45755;-70
2024/01/07 07:19:01;;;;;;;1.77;1.77;;;16.60;73.90;;;;;;5047538;28;44844;-72
2024/01/07 07:21:29;;;;;;;1.70;1.70;;;16.70;72.70;;;;;;5049307;28;43439;-73
2024/01/07 07:23:57;;;;;;;1.77;1.77;;;16.80;72.60;;;;;;5050060;28;43431;-72
2024/01/07 07:26:25;;;;;;;1.80;1.80;;;16.80;72.70;;;;;;5047571;28;45375;-73
2024/01/07 07:28:53;;;;;;;1.70;1.70;;;16.70;72.60;;;;;;5047786;28;44826;-73
2024/01/07 07:31:21;;;;;;;1.80;1.80;;;16.70;72.90;;;;;;5047698;28;43480;-73
2024/01/07 07:33:50;;;;;;;2.00;2.00;;;16.70;72.80;;;;;;5046382;28;43424;-72
2024/01/07 07:36:19;;;;;;;1.70;1.70;;;16.70;72.90;;;;;;5040860;28;45728;-73
2024/01/07 07:38:49;;;;;;;1.63;1.63;;;16.60;72.90;;;;;;5037159;28;44976;-72
2024/01/07 07:41:20;;;;;;;1.90;1.90;;;16.60;73.00;;;;;;5049196;28;43430;-74
2024/01/07 07:43:48;;;;;;;1.90;1.90;;;16.60;73.10;;;;;;5045733;28;43412;-74
2024/01/07 07:46:16;;;;;;;1.83;1.83;;;16.60;73.30;;;;;;5047355;28;44175;-71
2024/01/07 07:48:44;;;;;;;1.67;1.67;;;16.50;73.20;;;;;;5047162;28;44796;-73
2024/01/07 07:51:12;;;;;;;1.70;1.70;;;16.50;73.20;;;;;;5048944;28;43554;-72
2024/01/07 07:53:42;;;;;;;1.80;1.80;;;16.50;73.20;;;;;;5049352;28;43471;-73
2024/01/07 07:56:10;;;;;;;1.80;1.80;;;16.50;74.00;;;;;;5043917;28;43623;-73
2024/01/07 07:58:38;;;;;;;1.60;1.60;;;16.50;73.30;;;;;;5048708;28;43440;-73
2024/01/07 08:01:07;;;;;;;1.80;1.80;;;16.50;73.30;;;;;;5047875;28;43487;-72
2024/01/07 08:03:36;;;;;;;1.70;1.70;;;16.50;73.40;;;;;;5049080;28;43511;-71
2024/01/07 08:06:05;;;;;;;1.80;1.80;;;16.50;74.00;;;;;;5047671;28;44454;-70
2024/01/07 08:08:38;;;;;;;1.50;1.50;;;16.50;73.30;;;;;;5045262;28;43349;-71
2024/01/07 08:11:09;;;;;;;1.83;1.83;;;16.50;73.30;;;;;;5044769;28;44024;-72
2024/01/07 08:13:38;;;;;;;1.70;1.70;;;16.40;73.40;;;;;;5054002;28;43442;-71
2024/01/07 08:16:10;;;;;;;1.70;1.70;;;16.50;73.70;;;;;;5044095;28;45622;-71
2024/01/07 08:18:38;;;;;;;1.70;1.70;;;16.50;73.70;;;;;;5049075;28;43451;-72
2024/01/07 08:21:06;;;;;;;1.93;1.93;;;16.50;73.50;;;;;;5048725;28;43570;-70
2024/01/07 08:23:34;;;;;;;2.10;1.90;;;16.60;73.30;;;;;;5045504;28;43992;-70
2024/01/07 08:26:03;;;;;;;1.70;1.70;;;16.80;72.90;;;;;;5047839;28;46186;-70
2024/01/07 08:28:32;;;;;;;2.00;2.00;;;16.70;72.40;;;;;;5048491;28;43847;-70
2024/01/07 08:31:00;;;;;;;1.63;1.63;;;16.80;72.50;;;;;;5047040;28;43428;-70
2024/01/07 08:33:31;;;;;;;1.70;1.70;;;16.70;72.50;;;;;;5049274;28;43403;-71
2024/01/07 08:36:01;;;;;;;1.73;1.73;;;16.70;72.80;;;;;;5049249;28;43828;-74
2024/01/07 08:38:29;;;;;;;1.60;1.60;;;16.60;72.60;;;;;;5052975;28;43526;-76
2024/01/07 08:40:57;;;;;;;1.80;1.80;;;16.60;72.70;;;;;;5053327;28;43441;-74
2024/01/07 08:43:25;;;;;;;1.80;1.80;;;16.60;72.80;;;;;;5052843;28;43403;-76
2024/01/07 08:45:55;;;;;;;1.77;1.77;;;16.60;72.90;;;;;;5052883;28;44112;-76
2024/01/07 08:48:23;;;;;;;1.90;1.90;;;16.50;73.00;;;;;;5056207;28;44279;-74
2024/01/07 08:50:51;;;;;;;1.77;1.77;;;16.50;73.30;;;;;;5050493;28;43490;-77
2024/01/07 08:53:20;;;;;;;2.20;2.10;;;16.50;73.30;;;;;;5049015;28;43707;-74
2024/01/07 08:55:48;;;;;;;1.80;1.80;;;16.50;73.20;;;;;;5049363;28;46061;-73
2024/01/07 08:58:16;;;;;;;1.50;1.50;;;16.50;73.20;;;;;;5049993;28;43437;-74
2024/01/07 09:00:45;;;;;;;1.67;1.67;;;16.50;73.30;;;;;;5049924;28;43376;-74
2024/01/07 09:03:14;;;;;;;1.70;1.70;;;16.40;73.20;;;;;;5049552;28;43517;-74
2024/01/07 09:05:43;;;;;;;1.80;1.80;;;16.40;73.30;;;;;;5047091;28;43620;-75
2024/01/07 09:08:14;;;;;;;1.77;1.77;;;16.40;73.50;;;;;;5049197;28;43507;-73
2024/01/07 09:10:42;;;;;;;1.57;1.57;;;16.50;73.60;;;;;;5048656;28;43401;-77
2024/01/07 09:13:10;;;;;;;1.60;1.60;;;16.60;73.30;;;;;;5052726;28;43419;-74
2024/01/07 09:15:38;;;;;;;1.63;1.63;;;16.60;73.50;;;;;;5049265;28;44475;-75
2024/01/07 09:18:07;;;;;;;1.60;1.60;;;16.60;72.70;;;;;;5048222;28;43360;-72
2024/01/07 09:20:37;;;;;;;1.70;1.70;;;16.60;72.80;;;;;;5048195;28;43384;-74
2024/01/07 09:23:05;;;;;;;1.70;1.70;;;16.60;72.90;;;;;;5062435;28;43455;-76
2024/01/07 09:25:33;;;;;;;2.00;2.00;;;16.50;73.00;;;;;;5046931;28;45664;-75
2024/01/07 09:28:01;;;;;;;1.80;1.80;;;16.50;73.00;;;;;;5048645;28;43621;-72
2024/01/07 09:30:29;;;;;;;1.87;1.77;;;16.50;73.00;;;;;;5048814;28;43519;-74
2024/01/07 09:32:58;;;;;;;1.70;1.70;;;16.50;73.00;;;;;;5047979;28;43530;-74
2024/01/07 09:35:26;;;;;;;1.80;1.80;;;16.40;73.10;;;;;;5047300;28;46108;-74
2024/01/07 09:37:56;;;;;;;1.53;1.53;;;16.50;73.30;;;;;;5048486;28;43522;-74
2024/01/07 09:40:24;;;;;;;1.90;1.90;;;16.40;73.40;;;;;;5047922;28;43347;-75
2024/01/07 09:42:52;;;;;;;1.90;1.90;;;16.40;73.40;;;;;;5050415;28;43542;-73
2024/01/07 09:45:20;;;;;;;1.50;1.50;;;16.40;73.30;;;;;;5042929;28;46048;-74
2024/01/07 09:47:48;;;;;;;1.80;1.80;;;16.40;73.40;;;;;;5041742;28;43445;-71
2024/01/07 09:50:17;;;;;;;1.60;1.60;;;16.40;73.40;;;;;;5044348;28;43461;-74
2024/01/07 09:52:45;;;;;;;1.70;1.70;;;16.40;73.50;;;;;;5041639;28;43510;-75
2024/01/07 09:55:20;;;;;;;1.73;1.73;;;16.30;73.40;;;;;;5048664;28;43944;-71
2024/01/07 09:57:48;;;;;;;1.73;1.73;;;16.40;73.70;;;;;;5043997;28;45123;-73
2024/01/07 10:00:16;;;;;;;1.70;1.70;;;16.40;73.50;;;;;;5042437;28;43364;-78
2024/01/07 10:02:44;;;;;;;1.70;1.70;;;16.50;73.10;;;;;;5046142;28;43461;-75
2024/01/07 10:05:16;;;;;;;1.60;1.60;;;16.50;73.00;;;;;;5044030;28;44067;-72
2024/01/07 10:07:45;;;;;;;1.53;1.53;;;16.50;73.00;;;;;;5049066;28;43700;-71
2024/01/07 10:10:15;;;;;;;1.60;1.60;;;16.50;73.00;;;;;;5047101;28;43501;-71
2024/01/07 10:12:45;;;;;;;1.60;1.60;;;16.50;73.30;;;;;;5046143;28;43570;-72
2024/01/07 10:15:13;;;;;;;1.70;1.70;;;16.40;73.20;;;;;;5047169;28;45794;-72
2024/01/07 10:17:42;;;;;;;1.60;1.60;;;16.40;73.20;;;;;;5045791;28;44169;-72
2024/01/07 10:20:11;;;;;;;1.60;1.60;;;16.40;73.80;;;;;;5046544;28;43418;-72
2024/01/07 10:22:39;;;;;;;1.60;1.60;;;16.40;73.20;;;;;;5045998;28;43588;-71
2024/01/07 10:25:07;;;;;;;1.50;1.50;;;16.40;73.40;;;;;;5047587;28;43942;-73
2024/01/07 10:27:38;;;;;;;1.80;1.80;;;16.40;73.50;;;;;;5073742;28;45010;-73
2024/01/07 10:30:07;;;;;;;1.53;1.53;;;16.30;73.50;;;;;;5057718;28;43317;-74
2024/01/07 10:32:36;;;;;;;1.77;1.60;;;16.40;73.40;;;;;;5057555;28;43554;-75
2024/01/07 10:35:08;;;;;;;1.60;1.60;;;16.40;73.00;;;;;;5055358;28;45584;-73
2024/01/07 10:37:36;;;;;;;1.60;1.57;;;16.50;73.00;;;;;;5058023;28;43439;-74
2024/01/07 10:40:06;;;;;;;1.50;1.50;;;16.50;72.90;;;;;;5057313;28;43882;-74
2024/01/07 10:42:34;;;;;;;1.40;1.40;;;16.40;72.90;;;;;;5056827;28;43425;-73
2024/01/07 10:45:04;;;;;;;1.87;1.87;;;16.50;73.10;;;;;;5057158;28;43833;-75
2024/01/07 10:47:32;;;;;;;1.70;1.60;;;16.40;73.20;;;;;;5055931;28;43466;-73
2024/01/07 10:50:01;;;;;;;1.67;1.67;;;16.40;73.20;;;;;;5058565;28;43410;-73
2024/01/07 10:52:29;;;;;;;1.63;1.63;;;16.40;73.10;;;;;;5058065;28;43453;-72
2024/01/07 10:54:58;;;;;;;1.70;1.60;;;16.40;73.90;;;;;;5058939;28;45719;-74
2024/01/07 10:57:32;;;;;;;1.60;1.60;;;16.40;73.20;;;;;;5072085;28;43438;-75
2024/01/07 11:00:00;;;;;;;1.53;1.53;;;16.30;73.30;;;;;;5047389;28;43562;-74
2024/01/07 11:02:30;;;;;;;1.50;1.50;;;16.30;73.40;;;;;;5054783;28;43689;-74
2024/01/07 11:05:01;;;;;;;1.40;1.40;;;16.30;73.40;;;;;;5056576;28;45141;-76
2024/01/07 11:07:37;;;;;;;1.50;1.50;;;16.30;74.10;;;;;;5054655;28;44637;-78
2024/01/07 11:10:09;;;;;;;1.40;1.40;;;16.30;73.50;;;;;;5051484;28;43937;-75
2024/01/07 11:12:37;;;;;;;2.10;1.70;;;16.30;73.50;;;;;;5052487;28;43585;-75
2024/01/07 11:15:08;;;;;;;1.50;1.40;;;16.30;73.50;;;;;;5062770;28;43960;-78
2024/01/07 11:17:46;;;;;;;1.73;1.50;;;16.30;73.60;;;;;;5053374;28;44608;-75
2024/01/07 11:20:20;;;;;;;1.70;1.60;;;16.30;73.80;;;;;;5057872;28;43417;-76
2024/01/07 11:22:48;;;;;;;4.30;1.77;;;16.30;73.70;;;;;;5053237;28;43446;-74
2024/01/07 11:25:29;;;;;;;3.33;1.70;;;16.40;73.40;;;;;;5062091;28;45971;-74
2024/01/07 11:27:58;;;;;;;1.60;1.60;;;16.50;72.90;;;;;;5059424;28;44391;-75
2024/01/07 11:30:26;;;;;;;1.97;1.77;;;16.50;72.80;;;;;;5051421;28;43775;-74
2024/01/07 11:32:59;;;;;;;1.60;1.50;;;16.50;72.90;;;;;;5056499;28;43609;-74
2024/01/07 11:35:56;;;;;;;1.67;1.40;;;16.50;73.00;;;;;;5054523;28;43674;-74
2024/01/07 11:38:25;;;;;;;3.47;1.70;;;16.50;73.10;;;;;;5039799;28;43656;-72
2024/01/07 11:40:53;;;;;;;1.80;1.70;;;16.50;73.20;;;;;;5047879;28;43487;-72
2024/01/07 11:43:21;;;;;;;1.40;1.40;;;16.40;73.20;;;;;;5050091;28;43903;-72
2024/01/07 11:45:50;;;;;;;1.50;1.40;;;16.40;73.30;;;;;;5049108;28;43693;-72
2024/01/07 11:48:20;;;;;;;1.40;1.40;;;16.40;74.10;;;;;;5046217;28;44413;-72
2024/01/07 11:50:49;;;;;;;2.10;1.50;;;16.40;73.50;;;;;;5046263;28;44249;-70
2024/01/07 11:53:20;;;;;;;1.50;1.50;;;16.40;73.70;;;;;;5049366;28;43439;-71
2024/01/07 11:55:48;;;;;;;1.40;1.40;;;16.30;73.60;;;;;;5047799;28;45913;-72
2024/01/07 11:58:17;;;;;;;1.60;1.60;;;16.30;73.60;;;;;;5050196;28;43921;-71
2024/01/07 12:00:47;;;;;;;1.40;1.40;;;16.30;74.00;;;;;;5048899;28;43423;-71
2024/01/07 12:03:16;;;;;;;1.60;1.50;;;16.30;73.70;;;;;;5049635;28;44067;-71
2024/01/07 12:05:48;;;;;;;1.33;1.33;;;16.30;73.80;;;;;;5048047;28;43911;-72
2024/01/07 12:08:16;;;;;;;1.83;1.60;;;16.30;73.80;;;;;;5053125;28;43901;-71
2024/01/07 12:10:45;;;;;;;1.60;1.50;;;16.30;73.90;;;;;;5046017;28;43491;-71
2024/01/07 12:13:13;;;;;;;1.43;1.43;;;16.40;73.80;;;;;;5051738;28;43833;-70
2024/01/07 12:15:41;;;;;;;1.70;1.60;;;16.50;73.30;;;;;;5047603;28;43867;-73
2024/01/07 12:18:10;;;;;;;1.80;1.70;;;16.50;73.10;;;;;;5048859;28;43452;-73
2024/01/07 12:20:39;;;;;;;1.70;1.70;;;16.50;73.10;;;;;;5046027;28;43543;-73
2024/01/07 12:23:09;;;;;;;1.60;1.60;;;16.50;73.90;;;;;;5048048;28;43601;-71
2024/01/07 12:25:37;;;;;;;1.50;1.50;;;16.40;73.20;;;;;;5062619;28;45710;-71
2024/01/07 12:28:07;;;;;;;1.60;1.50;;;16.40;73.30;;;;;;5047624;28;44245;-73
2024/01/07 12:30:36;;;;;;;1.70;1.60;;;16.40;73.40;;;;;;5050334;28;43503;-75
2024/01/07 12:33:05;;;;;;;1.27;1.27;;;16.40;73.30;;;;;;5049330;28;43575;-79
2024/01/07 12:35:34;;;;;;;1.40;1.40;;;16.40;73.40;;;;;;5047780;28;46231;-73
2024/01/07 12:38:03;;;;;;;1.50;1.50;;;16.40;73.50;;;;;;5049168;28;43412;-71
2024/01/07 12:40:32;;;;;;;1.60;1.60;;;16.30;73.50;;;;;;5047402;28;43498;-72
2024/01/07 12:43:00;;;;;;;1.70;1.70;;;16.30;73.70;;;;;;5049430;28;43395;-72
2024/01/07 12:45:28;;;;;;;1.83;1.80;;;16.30;73.70;;;;;;5049174;28;43762;-72
2024/01/07 12:47:58;;;;;;;1.50;1.50;;;16.30;73.70;;;;;;5048805;28;43510;-74
2024/01/07 12:50:28;;;;;;;1.80;1.70;;;16.30;73.60;;;;;;5048561;28;43376;-72
2024/01/07 12:52:56;;;;;;;1.60;1.60;;;16.30;73.70;;;;;;5047198;28;43415;-73
2024/01/07 12:55:25;;;;;;;1.70;1.70;;;16.20;73.70;;;;;;5046451;28;45634;-71